Time;durP1;ratioP1;P1;durP2;ratioP2;P2;SDS_P1;SDS_P2;PMS_P1;PMS_P2;Temp;Humidity;BMP_temperature;BMP_pressure;BME280_temperature;BME280_humidity;BME280_pressure;Samples;Min_cycle;Max_cycle;Signal;HPM_P1;HPM_P2
2023/12/23 00:02:13;;;;;;;22.90;3.45;;;;;;;3.94;100.00;100492.06;4854475;29;20285;-81
2023/12/23 00:04:40;;;;;;;20.02;3.13;;;;;;;3.94;100.00;100507.69;4803151;29;20049;-80
2023/12/23 00:07:12;;;;;;;15.40;2.65;;;;;;;3.95;100.00;100501.63;4857057;29;20649;-79
2023/12/23 00:09:41;;;;;;;12.35;2.33;;;;;;;3.95;100.00;100507.75;4846699;29;20056;-77
2023/12/23 00:12:09;;;;;;;20.52;3.00;;;;;;;3.96;100.00;100511.22;4862162;29;20052;-81
2023/12/23 00:14:37;;;;;;;18.50;3.45;;;;;;;3.96;100.00;100504.28;4860727;29;20492;-82
2023/12/23 00:17:04;;;;;;;12.57;3.03;;;;;;;3.94;100.00;100492.94;4878357;29;20065;-81
2023/12/23 00:19:32;;;;;;;16.08;3.47;;;;;;;3.95;100.00;100501.63;4826484;29;20045;-79
2023/12/23 00:22:00;;;;;;;21.00;3.63;;;;;;;3.93;100.00;100505.91;4867633;29;20064;-79
2023/12/23 00:24:29;;;;;;;34.45;4.43;;;;;;;3.93;100.00;100505.91;4842871;29;20041;-80
2023/12/23 00:26:57;;;;;;;25.55;3.88;;;;;;;3.92;100.00;100504.19;4848593;29;20068;-79
2023/12/23 00:29:25;;;;;;;24.13;3.28;;;;;;;3.93;100.00;100505.91;4860485;29;20701;-79
2023/12/23 00:31:52;;;;;;;14.60;3.83;;;;;;;3.94;100.00;100505.09;4860231;29;20072;-79
2023/12/23 00:34:21;;;;;;;19.17;3.47;;;;;;;3.96;100.00;100511.22;4862597;29;20514;-79
2023/12/23 00:36:48;;;;;;;18.45;4.03;;;;;;;3.97;100.00;100507.75;4823059;29;20490;-79
2023/12/23 00:39:15;;;;;;;18.15;3.05;;;;;;;3.99;100.00;100503.47;4867399;29;20115;-80
2023/12/23 00:41:44;;;;;;;15.48;3.25;;;;;;;4.01;100.00;100502.66;4853882;29;20057;-78
2023/12/23 00:44:11;;;;;;;14.15;2.65;;;;;;;3.99;100.00;100501.75;4854156;29;20045;-80
2023/12/23 00:46:39;;;;;;;13.23;2.85;;;;;;;3.97;100.00;100507.75;4872310;29;20052;-79
2023/12/23 00:49:07;;;;;;;12.38;2.65;;;;;;;3.95;100.00;100504.22;4853056;29;20048;-79
2023/12/23 00:51:34;;;;;;;16.08;3.45;;;;;;;3.95;100.00;100501.63;4815476;29;20427;-80
2023/12/23 00:54:02;;;;;;;18.77;2.75;;;;;;;3.95;100.00;100499.91;4849924;29;20049;-79
2023/12/23 00:56:29;;;;;;;16.02;3.20;;;;;;;3.99;100.00;100493.03;4869266;29;20052;-79
2023/12/23 00:58:57;;;;;;;22.55;2.88;;;;;;;4.03;100.00;100489.69;4854998;29;20057;-79
2023/12/23 01:01:24;;;;;;;13.10;3.20;;;;;;;4.07;100.00;100486.28;4848244;29;20056;-80
2023/12/23 01:03:52;;;;;;;14.45;2.75;;;;;;;4.12;100.00;100478.56;4855001;29;20068;-81
2023/12/23 01:06:19;;;;;;;17.33;3.38;;;;;;;4.18;100.00;100481.31;4855190;29;20068;-78
2023/12/23 01:08:47;;;;;;;13.90;3.05;;;;;;;4.23;100.00;100488.41;4809609;29;20053;-81
2023/12/23 01:11:14;;;;;;;20.63;3.97;;;;;;;4.27;100.00;100499.78;4847212;29;20076;-80
2023/12/23 01:13:42;;;;;;;20.10;3.58;;;;;;;4.29;100.00;100479.81;4845973;29;20079;-80
2023/12/23 01:16:09;;;;;;;17.52;3.42;;;;;;;4.32;100.00;100492.09;4829051;29;20057;-79
2023/12/23 01:18:37;;;;;;;21.02;3.38;;;;;;;4.30;100.00;100500.75;4872772;29;20049;-79
2023/12/23 01:21:04;;;;;;;17.30;3.47;;;;;;;4.29;100.00;100496.38;4852938;29;20049;-79
2023/12/23 01:23:32;;;;;;;23.92;3.22;;;;;;;4.29;100.00;100503.31;4816664;29;20056;-78
2023/12/23 01:25:59;;;;;;;17.17;3.78;;;;;;;4.27;100.00;100495.47;4843260;29;20561;-78
2023/12/23 01:28:27;;;;;;;19.67;3.80;;;;;;;4.24;100.00;100499.72;4840974;29;20058;-79
2023/12/23 01:30:55;;;;;;;19.98;4.00;;;;;;;4.24;100.00;100498.00;4851358;29;20049;-79
2023/12/23 01:33:22;;;;;;;19.48;3.50;;;;;;;4.22;100.00;100497.09;4852531;29;20056;-79
2023/12/23 01:35:50;;;;;;;23.48;3.78;;;;;;;4.22;100.00;100491.00;4839295;29;20052;-79
2023/12/23 01:38:18;;;;;;;19.08;3.25;;;;;;;4.21;100.00;100486.59;4804674;29;20068;-79
2023/12/23 01:40:45;;;;;;;21.65;3.58;;;;;;;4.19;100.00;100486.56;4852105;29;20518;-79
2023/12/23 01:43:13;;;;;;;32.30;4.35;;;;;;;4.17;100.00;100477.81;4857116;29;20585;-79
2023/12/23 01:45:41;;;;;;;19.38;3.92;;;;;;;4.14;100.00;100476.88;4845197;29;20072;-80
2023/12/23 01:48:11;;;;;;;29.15;4.15;;;;;;;4.12;100.00;100484.69;4843153;29;20057;-80
2023/12/23 01:50:39;;;;;;;24.90;3.95;;;;;;;4.10;100.00;100489.84;4874015;29;20435;-81
2023/12/23 01:53:06;;;;;;;13.52;3.35;;;;;;;4.08;100.00;100477.59;4839747;29;20052;-79
2023/12/23 01:55:35;;;;;;;20.48;3.75;;;;;;;4.08;100.00;100475.00;4818968;29;20044;-80
2023/12/23 01:58:03;;;;;;;17.75;3.88;;;;;;;4.06;100.00;100472.38;4842735;29;20084;-80
2023/12/23 02:00:30;;;;;;;19.90;3.92;;;;;;;4.05;100.00;100474.94;4836315;29;20096;-80
2023/12/23 02:02:59;;;;;;;16.42;3.95;;;;;;;4.04;100.00;100473.16;4857713;29;20064;-79
2023/12/23 02:05:27;;;;;;;18.88;3.72;;;;;;;4.03;100.00;100471.44;4855507;29;20053;-79
2023/12/23 02:07:55;;;;;;;20.15;3.80;;;;;;;4.03;100.00;100477.50;4852576;29;20056;-79
2023/12/23 02:10:23;;;;;;;28.60;3.97;;;;;;;4.03;100.00;100474.03;4835841;29;20069;-79
2023/12/23 02:13:16;;;;;;;31.58;3.83;;;;;;;4.03;100.00;100471.44;4857506;29;20521;-80
2023/12/23 02:15:47;;;;;;;25.05;3.88;;;;;;;4.02;100.00;100467.03;4851869;29;20522;-79
2023/12/23 02:18:14;;;;;;;31.27;4.72;;;;;;;4.02;100.00;100472.25;4847163;29;20060;-78
2023/12/23 02:20:46;;;;;;;22.05;4.82;;;;;;;3.99;100.00;100470.47;4856794;29;20052;-79
2023/12/23 02:23:13;;;;;;;17.33;3.30;;;;;;;3.99;100.00;100466.97;4857481;29;20503;-79
2023/12/23 02:25:43;;;;;;;26.92;3.38;;;;;;;3.99;100.00;100467.88;4823635;29;20108;-79
2023/12/23 02:28:14;;;;;;;25.15;3.75;;;;;;;4.00;100.00;100469.59;4857194;29;20701;-79
2023/12/23 02:30:44;;;;;;;18.85;2.78;;;;;;;4.02;100.00;100454.88;4857089;29;20079;-79
2023/12/23 02:33:12;;;;;;;17.98;2.90;;;;;;;4.07;100.00;100455.88;4838758;29;20418;-80
2023/12/23 02:35:40;;;;;;;17.48;3.08;;;;;;;4.15;100.00;100453.44;4856501;29;20108;-79
2023/12/23 02:38:08;;;;;;;13.32;2.65;;;;;;;4.20;100.00;100446.63;4860617;29;20049;-78
2023/12/23 02:40:36;;;;;;;22.05;3.58;;;;;;;4.25;100.00;100444.09;4856908;29;20049;-79
2023/12/23 02:43:04;;;;;;;22.02;3.28;;;;;;;4.31;100.00;100446.88;4816156;29;20057;-78
2023/12/23 02:45:31;;;;;;;16.52;3.22;;;;;;;4.34;100.00;100443.44;4856378;29;20041;-78
2023/12/23 02:47:59;;;;;;;24.55;4.00;;;;;;;4.39;100.00;100441.81;4843767;29;20080;-78
2023/12/23 02:50:26;;;;;;;18.83;3.83;;;;;;;4.41;100.00;100445.34;4862320;29;20049;-80
2023/12/23 02:52:54;;;;;;;19.05;3.85;;;;;;;4.45;100.00;100447.16;4842712;29;20080;-79
2023/12/23 02:55:21;;;;;;;12.90;3.00;;;;;;;4.46;100.00;100443.69;4870995;29;20470;-78
2023/12/23 02:57:49;;;;;;;11.25;2.67;;;;;;;4.48;100.00;100440.28;4839520;29;20045;-78
2023/12/23 03:00:16;;;;;;;13.93;3.33;;;;;;;4.48;100.00;100448.09;4845039;29;20490;-80
2023/12/23 03:02:44;;;;;;;15.32;3.15;;;;;;;4.51;100.00;100444.66;4847313;29;20056;-79
2023/12/23 03:05:11;;;;;;;13.52;2.33;;;;;;;4.52;100.00;100442.94;4845310;29;20060;-79
2023/12/23 03:07:38;;;;;;;13.57;2.47;;;;;;;4.53;100.00;100447.31;4854293;29;20062;-79
2023/12/23 03:10:07;;;;;;;14.90;2.83;;;;;;;4.52;100.00;100438.63;4871464;29;20045;-79
2023/12/23 03:12:35;;;;;;;12.77;2.60;;;;;;;4.50;100.00;100445.53;4819001;29;20064;-80
2023/12/23 03:15:07;;;;;;;15.70;3.85;;;;;;;4.51;100.00;100436.84;4848527;29;20057;-80
2023/12/23 03:17:35;;;;;;;11.70;2.35;;;;;;;4.50;100.00;100440.31;4847000;29;20056;-80
2023/12/23 03:20:03;;;;;;;10.15;2.45;;;;;;;4.48;100.00;100444.63;4847553;29;20057;-80
2023/12/23 03:22:32;;;;;;;10.98;2.17;;;;;;;4.46;100.00;100435.84;4852278;29;20057;-80
2023/12/23 03:25:00;;;;;;;18.77;3.08;;;;;;;4.46;100.00;100438.47;4853000;29;20800;-81
2023/12/23 03:27:27;;;;;;;11.10;2.17;;;;;;;4.44;100.00;100429.72;4811589;29;20053;-78
2023/12/23 03:29:54;;;;;;;12.15;2.72;;;;;;;4.43;100.00;100428.84;4847135;29;20057;-79
2023/12/23 03:32:22;;;;;;;16.70;2.92;;;;;;;4.40;100.00;100423.56;4839815;29;20049;-80
2023/12/23 03:34:50;;;;;;;19.15;3.42;;;;;;;4.40;100.00;100422.69;4830119;29;20059;-79
2023/12/23 03:37:18;;;;;;;10.98;2.10;;;;;;;4.40;100.00;100425.28;4869435;29;20499;-79
2023/12/23 03:39:46;;;;;;;18.05;3.05;;;;;;;4.37;100.00;100414.81;4853620;29;20057;-80
2023/12/23 03:42:13;;;;;;;12.88;2.63;;;;;;;4.35;100.00;100411.25;4822979;29;20053;-79
2023/12/23 03:44:41;;;;;;;13.32;2.30;;;;;;;4.33;100.00;100402.53;4851563;29;20503;-80
2023/12/23 03:47:09;;;;;;;14.00;1.88;;;;;;;4.32;100.00;100411.22;4844811;29;20053;-79
2023/12/23 03:49:37;;;;;;;14.88;2.47;;;;;;;4.30;100.00;100416.41;4863233;29;20068;-80
2023/12/23 03:52:04;;;;;;;15.63;2.17;;;;;;;4.27;100.00;100398.06;4865655;29;20048;-79
2023/12/23 03:54:32;;;;;;;16.30;2.60;;;;;;;4.25;100.00;100395.44;4841051;29;20060;-79
2023/12/23 03:56:59;;;;;;;7.57;2.05;;;;;;;4.23;100.00;100384.06;4855915;29;20053;-80
2023/12/23 03:59:27;;;;;;;9.30;2.10;;;;;;;4.21;100.00;100388.38;4837395;29;20068;-79
2023/12/23 04:01:54;;;;;;;14.52;2.20;;;;;;;4.18;100.00;100379.59;4845346;29;20060;-79
2023/12/23 04:04:22;;;;;;;9.98;2.15;;;;;;;4.15;100.00;100367.38;4860954;29;20809;-79
2023/12/23 04:06:49;;;;;;;8.73;2.22;;;;;;;4.14;100.00;100373.47;4868425;29;20064;-79
2023/12/23 04:09:17;;;;;;;9.07;1.85;;;;;;;4.11;100.00;100355.13;4854310;29;20475;-80
2023/12/23 04:11:45;;;;;;;11.93;2.15;;;;;;;4.10;100.00;100350.75;4856829;29;20061;-81
2023/12/23 04:14:13;;;;;;;9.80;2.08;;;;;;;4.09;100.00;100351.63;4838435;29;20057;-79
2023/12/23 04:16:40;;;;;;;11.95;2.53;;;;;;;4.09;100.00;100344.66;4841283;29;20613;-81
2023/12/23 04:19:08;;;;;;;14.55;2.30;;;;;;;4.10;100.00;100353.34;4854893;29;20068;-78
2023/12/23 04:21:36;;;;;;;10.48;2.13;;;;;;;4.09;100.00;100343.78;4846457;29;20535;-80
2023/12/23 04:24:04;;;;;;;11.43;2.15;;;;;;;4.10;100.00;100342.94;4855779;29;20083;-80
2023/12/23 04:26:32;;;;;;;17.00;3.00;;;;;;;4.09;100.00;100344.66;4854472;29;20064;-79
2023/12/23 04:29:00;;;;;;;13.75;2.28;;;;;;;4.10;100.00;100345.53;4871696;29;20041;-79
2023/12/23 04:31:27;;;;;;;12.38;2.33;;;;;;;4.09;100.00;100343.78;4812687;29;20056;-79
2023/12/23 04:33:55;;;;;;;13.32;2.00;;;;;;;4.09;100.00;100334.22;4857444;29;20073;-79
2023/12/23 04:36:23;;;;;;;18.10;2.88;;;;;;;4.10;100.00;100328.19;4856255;29;20075;-81
2023/12/23 04:38:51;;;;;;;17.27;2.60;;;;;;;4.09;100.00;100320.31;4841492;29;20083;-79
2023/12/23 04:41:19;;;;;;;23.65;2.88;;;;;;;4.09;100.00;100321.19;4852104;29;20565;-79
2023/12/23 04:43:46;;;;;;;16.52;2.85;;;;;;;4.09;100.00;100308.16;4855940;29;20053;-79
2023/12/23 04:46:14;;;;;;;14.15;2.17;;;;;;;4.11;100.00;100316.00;4810935;29;20419;-79
2023/12/23 04:48:41;;;;;;;17.48;2.22;;;;;;;4.10;100.00;100307.31;4840213;29;20064;-79
2023/12/23 04:51:09;;;;;;;9.75;1.95;;;;;;;4.10;100.00;100301.19;4867572;29;20053;-80
2023/12/23 04:53:36;;;;;;;15.32;2.42;;;;;;;4.08;100.00;100311.63;4843249;29;20057;-80
2023/12/23 04:56:04;;;;;;;12.43;2.25;;;;;;;4.07;100.00;100299.41;4854068;29;20049;-79
2023/12/23 04:58:32;;;;;;;11.00;2.22;;;;;;;4.07;100.00;100294.22;4838821;29;20083;-79
2023/12/23 05:00:59;;;;;;;13.93;1.88;;;;;;;4.06;100.00;100295.06;4861930;29;20514;-80
2023/12/23 05:03:34;;;;;;;10.63;1.88;;;;;;;4.05;100.00;100285.47;4828807;29;20052;-79
2023/12/23 05:06:01;;;;;;;11.27;1.85;;;;;;;4.06;100.00;100283.75;4853255;29;20049;-81
2023/12/23 05:08:29;;;;;;;18.20;2.00;;;;;;;4.05;100.00;100282.88;4857081;29;20060;-81
2023/12/23 05:10:57;;;;;;;7.97;2.05;;;;;;;4.05;100.00;100268.97;4868972;29;20065;-79
2023/12/23 05:13:24;;;;;;;8.75;1.50;;;;;;;4.05;100.00;100262.00;4867125;29;20080;-81
2023/12/23 05:15:52;;;;;;;8.80;1.85;;;;;;;4.04;100.00;100262.84;4855626;29;20060;-79
2023/12/23 05:18:19;;;;;;;6.75;2.00;;;;;;;4.05;100.00;100256.78;4823911;29;20088;-79
2023/12/23 05:20:48;;;;;;;10.48;1.83;;;;;;;4.05;100.00;100243.75;4872576;29;20101;-79
2023/12/23 05:23:16;;;;;;;4.60;1.33;;;;;;;4.04;100.00;100241.13;4864452;29;20432;-79
2023/12/23 05:25:45;;;;;;;4.63;1.45;;;;;;;4.03;100.00;100240.25;4879139;29;20044;-79
2023/12/23 05:28:12;;;;;;;7.97;1.33;;;;;;;4.02;100.00;100235.00;4869573;29;20506;-79
2023/12/23 05:30:40;;;;;;;8.30;1.48;;;;;;;4.01;100.00;100230.66;4872868;29;20075;-80
2023/12/23 05:33:07;;;;;;;11.20;1.50;;;;;;;4.00;100.00;100221.06;4835257;29;20052;-80
2023/12/23 05:35:35;;;;;;;10.45;2.50;;;;;;;3.99;100.00;100216.66;4856270;29;20061;-79
2023/12/23 05:38:02;;;;;;;9.55;1.45;;;;;;;3.99;100.00;100217.56;4869255;29;20053;-80
2023/12/23 05:40:31;;;;;;;5.95;1.27;;;;;;;4.00;100.00;100210.63;4849971;29;20503;-81
2023/12/23 05:43:02;;;;;;;13.35;1.65;;;;;;;3.99;100.00;100201.94;4872731;29;20503;-80
2023/12/23 05:45:29;;;;;;;5.75;1.65;;;;;;;3.99;100.00;100207.16;4867524;29;20064;-78
2023/12/23 05:47:57;;;;;;;8.45;1.17;;;;;;;3.99;100.00;100211.47;4859589;29;20054;-81
2023/12/23 05:50:24;;;;;;;6.95;1.52;;;;;;;4.00;100.00;100210.63;4842502;29;20049;-79
2023/12/23 05:52:52;;;;;;;9.70;1.83;;;;;;;4.01;100.00;100204.56;4872126;29;20041;-79
2023/12/23 05:55:20;;;;;;;7.15;1.40;;;;;;;4.00;100.00;100215.84;4858000;29;20679;-79
2023/12/23 05:57:47;;;;;;;8.50;1.17;;;;;;;4.00;100.00;100208.03;4872964;29;20053;-80
2023/12/23 06:00:15;;;;;;;5.45;1.05;;;;;;;4.00;100.00;100202.81;4868758;29;20068;-79
2023/12/23 06:02:43;;;;;;;2.33;0.65;;;;;;;3.97;100.00;100203.63;4873258;29;20061;-79
2023/12/23 06:05:10;;;;;;;4.32;1.17;;;;;;;3.96;100.00;100196.66;4833019;29;20080;-80
2023/12/23 06:07:38;;;;;;;4.20;1.13;;;;;;;3.97;100.00;100203.63;4864732;29;20053;-80
2023/12/23 06:10:06;;;;;;;3.92;0.70;;;;;;;3.95;100.00;100196.59;4859694;29;20053;-78
2023/12/23 06:12:34;;;;;;;2.47;0.85;;;;;;;3.94;100.00;100210.50;4846564;29;20049;-80
2023/12/23 06:15:01;;;;;;;3.40;0.90;;;;;;;3.93;100.00;100198.31;4863981;29;20065;-81
2023/12/23 06:17:28;;;;;;;1.83;0.73;;;;;;;3.92;100.00;100196.56;4870586;29;20462;-78
2023/12/23 06:19:56;;;;;;;4.15;0.80;;;;;;;3.91;100.00;100193.06;4841362;29;20847;-80
2023/12/23 06:22:23;;;;;;;2.88;0.80;;;;;;;3.92;100.00;100197.44;4869576;29;20272;-79
2023/12/23 06:24:51;;;;;;;4.00;0.88;;;;;;;3.92;100.00;100200.06;4871943;29;20068;-79
2023/12/23 06:27:18;;;;;;;6.53;1.05;;;;;;;3.93;100.00;100200.91;4857019;29;20037;-79
2023/12/23 06:29:46;;;;;;;2.70;0.80;;;;;;;3.93;100.00;100190.50;4852333;29;20061;-79
2023/12/23 06:32:13;;;;;;;3.30;0.80;;;;;;;3.94;100.00;100192.25;4869132;29;20057;-79
2023/12/23 06:34:40;;;;;;;3.13;0.95;;;;;;;3.95;100.00;100180.97;4823090;29;20053;-79
2023/12/23 06:37:08;;;;;;;4.68;1.63;;;;;;;3.96;100.00;100174.91;4858722;29;20582;-79
2023/12/23 06:39:35;;;;;;;2.83;1.02;;;;;;;3.95;100.00;100167.94;4870224;29;20061;-79
2023/12/23 06:42:03;;;;;;;3.08;0.75;;;;;;;3.97;100.00;100174.06;4865641;29;20071;-79
2023/12/23 06:44:30;;;;;;;3.22;0.90;;;;;;;3.96;100.00;100177.53;4866956;29;20061;-79
2023/12/23 06:46:58;;;;;;;6.00;1.08;;;;;;;3.97;100.00;100177.56;4868699;29;20487;-81
2023/12/23 06:49:27;;;;;;;3.85;0.90;;;;;;;3.99;100.00;100178.47;4834346;29;20759;-80
2023/12/23 06:51:55;;;;;;;4.85;0.82;;;;;;;4.01;100.00;100178.50;4863977;29;20063;-79
2023/12/23 06:54:22;;;;;;;4.25;1.02;;;;;;;4.00;100.00;100195.84;4871078;29;20049;-78
2023/12/23 06:56:49;;;;;;;2.67;0.73;;;;;;;4.02;100.00;100180.25;4860112;29;20056;-79
2023/12/23 06:59:17;;;;;;;2.00;0.63;;;;;;;4.02;100.00;100186.31;4843755;29;20053;-78
2023/12/23 07:01:45;;;;;;;3.38;1.10;;;;;;;4.03;100.00;100208.97;4885696;29;20052;-80
2023/12/23 07:04:12;;;;;;;4.25;0.75;;;;;;;4.03;100.00;100189.84;4840911;29;20499;-80
2023/12/23 07:06:40;;;;;;;3.95;1.02;;;;;;;4.03;100.00;100198.53;4868106;29;20045;-79
2023/12/23 07:09:07;;;;;;;3.55;0.93;;;;;;;4.04;100.00;100202.00;4869401;29;20056;-79
2023/12/23 07:11:36;;;;;;;3.15;1.00;;;;;;;4.01;100.00;100187.19;4849406;29;20057;-80
2023/12/23 07:14:03;;;;;;;2.90;0.98;;;;;;;4.00;100.00;100195.84;4832766;29;20677;-80
2023/12/23 07:16:31;;;;;;;3.33;1.00;;;;;;;3.99;100.00;100201.94;4870322;29;20465;-79
2023/12/23 07:18:58;;;;;;;5.82;1.15;;;;;;;3.98;100.00;100192.34;4866218;29;20503;-78
2023/12/23 07:21:26;;;;;;;2.45;1.10;;;;;;;3.98;100.00;100194.06;4842337;29;20052;-80
2023/12/23 07:23:53;;;;;;;4.78;1.00;;;;;;;3.97;100.00;100194.91;4872393;29;20049;-79
2023/12/23 07:26:22;;;;;;;1.65;0.82;;;;;;;3.98;100.00;100189.72;4867099;29;20057;-79
2023/12/23 07:28:49;;;;;;;0.63;0.45;;;;;;;3.97;100.00;100188.00;4854425;29;20049;-80
2023/12/23 07:31:18;;;;;;;1.25;0.82;;;;;;;3.97;100.00;100194.91;4868600;29;20057;-79
2023/12/23 07:33:46;;;;;;;2.50;0.85;;;;;;;3.96;100.00;100191.44;4872086;29;20045;-79
2023/12/23 07:36:14;;;;;;;7.18;1.02;;;;;;;3.97;100.00;100187.09;4834258;29;20427;-79
2023/12/23 07:38:41;;;;;;;2.42;0.63;;;;;;;3.97;100.00;100190.59;4869523;29;20060;-78
2023/12/23 07:41:10;;;;;;;1.02;0.60;;;;;;;3.98;100.00;100200.16;4853421;29;20495;-79
2023/12/23 07:43:38;;;;;;;4.95;1.30;;;;;;;3.99;100.00;100207.16;4859311;29;20511;-79
2023/12/23 07:46:07;;;;;;;3.90;0.73;;;;;;;4.00;100.00;100219.31;4865875;29;20049;-79
2023/12/23 07:48:34;;;;;;;1.48;0.80;;;;;;;4.00;100.00;100223.66;4869664;29;20166;-79
2023/12/23 07:51:06;;;;;;;3.08;0.70;;;;;;;4.00;100.00;100213.22;4831206;29;20503;-78
2023/12/23 07:53:34;;;;;;;2.75;0.82;;;;;;;3.99;100.00;100217.56;4866393;29;20144;-81
2023/12/23 07:56:02;;;;;;;3.40;0.80;;;;;;;3.99;100.00;100216.66;4867071;29;20068;-81
2023/12/23 07:58:29;;;;;;;5.05;0.95;;;;;;;3.98;100.00;100207.97;4857097;29;20063;-80
2023/12/23 08:00:57;;;;;;;1.65;0.82;;;;;;;3.99;100.00;100224.50;4874609;29;20063;-80
2023/12/23 08:03:24;;;;;;;1.98;0.75;;;;;;;3.97;100.00;100219.28;4853304;29;20068;-80
2023/12/23 08:05:52;;;;;;;3.65;0.70;;;;;;;3.97;100.00;100219.28;4830980;29;20053;-80
2023/12/23 08:08:19;;;;;;;1.08;0.47;;;;;;;3.97;100.00;100220.97;4857828;29;20053;-80
2023/12/23 08:10:47;;;;;;;3.88;0.70;;;;;;;3.98;100.00;100220.16;4870688;29;20741;-80
2023/12/23 08:13:14;;;;;;;3.17;1.30;;;;;;;3.98;100.00;100218.41;4867637;29;20063;-79
2023/12/23 08:15:42;;;;;;;1.80;0.65;;;;;;;3.98;100.00;100225.34;4844639;29;20473;-80
2023/12/23 08:18:09;;;;;;;2.15;0.80;;;;;;;3.97;100.00;100221.88;4871545;29;20056;-80
2023/12/23 08:20:37;;;;;;;4.45;1.10;;;;;;;3.97;100.00;100223.59;4835322;29;20514;-80
2023/12/23 08:23:04;;;;;;;0.70;0.70;;;;;;;3.97;100.00;100228.81;4853539;29;20461;-80
2023/12/23 08:25:32;;;;;;;3.90;0.90;;;;;;;3.94;100.00;100240.06;4849919;29;20052;-79
2023/12/23 08:28:00;;;;;;;0.60;0.60;;;;;;;3.95;100.00;100246.13;4869726;29;20053;-80
2023/12/23 08:30:27;;;;;;;2.65;0.70;;;;;;;3.95;100.00;100246.13;4858898;29;20059;-80
2023/12/23 08:32:55;;;;;;;0.57;0.57;;;;;;;3.95;100.00;100256.56;4870757;29;20053;-80
2023/12/23 08:35:22;;;;;;;2.67;1.00;;;;;;;3.96;100.00;100243.56;4852227;29;20052;-80
2023/12/23 08:37:50;;;;;;;0.82;0.73;;;;;;;3.95;100.00;100241.84;4809592;29;20049;-80
2023/12/23 08:40:18;;;;;;;5.60;1.00;;;;;;;3.97;100.00;100239.22;4863733;29;20056;-80
2023/12/23 08:42:45;;;;;;;1.92;1.08;;;;;;;3.99;100.00;100247.97;4861177;29;20069;-79
2023/12/23 08:45:13;;;;;;;3.35;1.50;;;;;;;3.99;100.00;100243.66;4858276;29;20064;-80
2023/12/23 08:47:40;;;;;;;1.13;1.08;;;;;;;4.01;100.00;100262.81;4867219;29;20069;-80
2023/12/23 08:50:08;;;;;;;1.50;1.40;;;;;;;4.02;100.00;100263.69;4852503;29;20065;-79
2023/12/23 08:52:35;;;;;;;2.78;1.10;;;;;;;4.00;100.00;100276.66;4850256;29;20057;-78
2023/12/23 08:55:03;;;;;;;2.13;1.58;;;;;;;4.01;100.00;100267.16;4835253;29;20056;-80
2023/12/23 08:57:31;;;;;;;3.50;1.23;;;;;;;4.02;100.00;100279.31;4880201;29;20064;-79
2023/12/23 08:59:58;;;;;;;3.25;1.00;;;;;;;4.03;100.00;100281.97;4867566;29;20049;-79
2023/12/23 09:02:26;;;;;;;0.90;0.80;;;;;;;4.04;100.00;100288.06;4859641;29;20065;-79
2023/12/23 09:04:55;;;;;;;0.95;0.70;;;;;;;4.05;100.00;100276.78;4858079;29;20045;-79
2023/12/23 09:07:23;;;;;;;3.60;1.00;;;;;;;4.06;100.00;100279.44;4837050;29;20064;-79
2023/12/23 09:09:50;;;;;;;2.58;1.00;;;;;;;4.07;100.00;100278.56;4842024;29;20419;-80
2023/12/23 09:12:20;;;;;;;2.58;1.20;;;;;;;4.09;100.00;100278.59;4848856;29;20049;-80
2023/12/23 09:14:49;;;;;;;1.45;1.08;;;;;;;4.08;100.00;100289.88;4873853;29;20057;-79
2023/12/23 09:17:16;;;;;;;2.53;1.10;;;;;;;4.08;100.00;100288.16;4836341;29;20053;-80
2023/12/23 09:19:44;;;;;;;2.92;1.23;;;;;;;4.09;100.00;100287.28;4845557;29;20064;-80
2023/12/23 09:22:12;;;;;;;1.40;1.02;;;;;;;4.09;100.00;100292.50;4848081;29;20420;-80
2023/12/23 09:24:42;;;;;;;2.50;1.00;;;;;;;4.11;100.00;100295.16;4789693;29;20412;-79
2023/12/23 09:27:09;;;;;;;2.13;1.58;;;;;;;4.12;100.00;100289.09;4852860;29;20420;-80
2023/12/23 09:29:37;;;;;;;6.05;1.15;;;;;;;4.12;100.00;100283.91;4830439;29;20050;-80
2023/12/23 09:32:04;;;;;;;3.00;1.30;;;;;;;4.12;100.00;100283.91;4821914;29;20068;-79
2023/12/23 09:34:32;;;;;;;1.65;1.05;;;;;;;4.16;100.00;100292.63;4834963;29;20057;-78
2023/12/23 09:37:00;;;;;;;1.13;1.02;;;;;;;4.17;100.00;100295.28;4868051;29;20828;-79
2023/12/23 09:39:28;;;;;;;1.83;1.40;;;;;;;4.19;100.00;100304.00;4804754;29;20057;-81
2023/12/23 09:41:56;;;;;;;3.22;1.38;;;;;;;4.22;100.00;100300.59;4845180;29;20062;-80
2023/12/23 09:44:24;;;;;;;4.53;1.60;;;;;;;4.24;100.00;100293.69;4843096;29;20056;-80
2023/12/23 09:46:51;;;;;;;2.35;1.20;;;;;;;4.26;100.00;100287.63;4841554;29;20037;-80
2023/12/23 09:49:19;;;;;;;2.33;1.15;;;;;;;4.26;100.00;100290.25;4855062;29;20509;-81
2023/12/23 09:51:47;;;;;;;3.92;2.53;;;;;;;4.28;100.00;100298.97;4850656;29;20061;-80
2023/12/23 09:54:20;;;;;;;3.30;2.28;;;;;;;4.28;100.00;100293.75;4853772;29;20478;-80
2023/12/23 09:56:49;;;;;;;2.33;2.05;;;;;;;4.29;100.00;100299.84;4851675;29;20049;-79
2023/12/23 09:59:17;;;;;;;3.00;2.03;;;;;;;4.30;100.00;100304.22;4858603;29;20048;-79
2023/12/23 10:01:45;;;;;;;5.18;2.25;;;;;;;4.32;100.00;100299.03;4839596;29;20052;-80
2023/12/23 10:04:12;;;;;;;3.92;2.10;;;;;;;4.34;100.00;100307.78;4848086;29;20060;-79
2023/12/23 10:06:40;;;;;;;4.25;2.35;;;;;;;4.34;100.00;100306.03;4849223;29;20075;-79
2023/12/23 10:09:10;;;;;;;3.65;1.98;;;;;;;4.36;100.00;100313.91;4856192;29;20608;-80
2023/12/23 10:11:37;;;;;;;4.38;2.28;;;;;;;4.37;100.00;100313.06;4836253;29;20553;-78
2023/12/23 10:14:04;;;;;;;4.43;3.40;;;;;;;4.37;100.00;100316.56;4849649;29;20060;-81
2023/12/23 10:16:32;;;;;;;2.55;2.00;;;;;;;4.38;100.00;100317.41;4846701;29;20060;-79
2023/12/23 10:19:00;;;;;;;5.55;2.13;;;;;;;4.39;100.00;100322.69;4858364;29;20059;-79
2023/12/23 10:21:27;;;;;;;4.25;1.40;;;;;;;4.40;100.00;100320.94;4864209;29;20683;-79
2023/12/23 10:23:55;;;;;;;1.85;1.70;;;;;;;4.41;100.00;100320.09;4851272;29;20076;-80
2023/12/23 10:26:24;;;;;;;2.08;1.40;;;;;;;4.42;100.00;100319.25;4815018;29;20064;-81
2023/12/23 10:28:57;;;;;;;2.35;1.38;;;;;;;4.43;100.00;100321.00;4841571;29;20044;-81
2023/12/23 10:31:29;;;;;;;1.55;1.30;;;;;;;4.44;100.00;100320.16;4854396;29;20049;-80
2023/12/23 10:34:08;;;;;;;1.55;1.15;;;;;;;4.46;100.00;100328.88;4806093;29;20064;-79
2023/12/23 10:36:41;;;;;;;2.17;1.60;;;;;;;4.46;100.00;100323.66;4853150;29;20053;-80
2023/12/23 10:39:31;;;;;;;3.45;2.40;;;;;;;4.49;100.00;100335.03;4867399;29;20056;-80
2023/12/23 10:42:10;;;;;;;1.70;1.60;;;;;;;4.51;100.00;100334.19;4825983;29;20052;-79
2023/12/23 10:44:42;;;;;;;1.60;1.50;;;;;;;4.51;100.00;100332.47;4857288;29;20068;-79
2023/12/23 10:47:11;;;;;;;2.88;2.47;;;;;;;4.51;100.00;100340.28;4856100;29;20053;-78
2023/12/23 10:49:40;;;;;;;1.25;1.23;;;;;;;4.50;100.00;100330.72;4830905;29;20531;-81
2023/12/23 10:52:09;;;;;;;0.90;0.90;;;;;;;4.49;100.00;100335.03;4854601;29;20431;-81
2023/12/23 10:54:37;;;;;;;1.30;1.30;;;;;;;4.51;100.00;100329.84;4848344;29;20061;-79
2023/12/23 10:57:06;;;;;;;1.85;1.00;;;;;;;4.54;100.00;100324.72;4834498;29;20463;-79
2023/12/23 10:59:35;;;;;;;3.58;1.00;;;;;;;4.56;100.00;100323.00;4847548;29;20062;-78
2023/12/23 11:02:14;;;;;;;1.42;1.33;;;;;;;4.59;100.00;100324.78;4858224;29;20050;-79
2023/12/23 11:04:50;;;;;;;1.08;1.08;;;;;;;4.60;100.00;100321.34;4838546;29;21282;-79
2023/12/23 11:07:22;;;;;;;3.40;1.00;;;;;;;4.61;100.00;100318.75;4850122;29;20076;-79
2023/12/23 11:09:52;;;;;;;1.88;1.33;;;;;;;4.65;100.00;100317.97;4861034;29;20068;-78
2023/12/23 11:12:20;;;;;;;;;;;;;;;4.69;100.00;100326.72;4821640;29;20054;-80
2023/12/23 11:14:48;;;;;;;0.60;0.60;;;;;;;4.69;100.00;100334.56;4858392;29;19928;-80
2023/12/23 11:17:29;;;;;;;0.80;0.80;;;;;;;4.71;100.00;100324.13;4859457;29;20794;-80
2023/12/23 11:20:03;;;;;;;0.90;0.90;;;;;;;4.69;100.00;100317.16;4837163;29;20060;-79
2023/12/23 11:22:38;;;;;;;0.98;0.98;;;;;;;4.71;100.00;100322.41;4845850;29;20048;-79
2023/12/23 11:25:35;;;;;;;0.90;0.90;;;;;;;4.75;100.00;100310.31;4829417;29;20060;-80
2023/12/23 11:28:09;;;;;;;3.30;2.72;;;;;;;4.78;100.00;100320.78;4815910;29;20049;-80